Overview Statistics Trail Chart Weather Telemetry Raw packets
 

This is the latest recevied weather packets stored in our database for station/object AG1T-20. If no packets are shown the sender has not sent any weather packets the latest 10 day(s).

<< 38 39 40 41 42 43 44 >>
Time Temp. Humidity Pressure Rain* Wind** Luminosity Snow
1788027005 17.22° C 73% 1020.8 hPa 1.02 mm - 77 W/m² -
1788026405 16.67° C 72% 1020.8 hPa 1.27 mm - 57 W/m² -
1788025805 16.11° C 76% 1022.8 hPa 2.03 mm - 40 W/m² -
1788025205 16.11° C 79% 1022.8 hPa 2.54 mm - 27 W/m² -
1788024605 15.56° C 82% 1022.8 hPa 2.54 mm - 31 W/m² -
1788024005 16.11° C 81% 1022.8 hPa 2.54 mm - 40 W/m² -
1788023405 15.56° C 84% 1022.8 hPa 2.54 mm - 41 W/m² -
1788022805 15.56° C 87% 1022.8 hPa 2.29 mm - 38 W/m² -
1788022205 15.56° C 88% 1020.8 hPa 1.27 mm - 12 W/m² -
1788021605 16.11° C 89% 1020.8 hPa 0.51 mm - 12 W/m² -
1788021005 16.67° C 85% 1020.8 hPa 0.25 mm - 16 W/m² -
1788020405 17.22° C 82% 1020.8 hPa 0 mm - 26 W/m² -
1788019805 17.78° C 81% 1020.8 hPa 0 mm - 38 W/m² -
1788019205 17.22° C 84% 1020.8 hPa 0 mm - 124 W/m² -
1788018605 17.78° C 79% 1020.4 hPa 0 mm - 125 W/m² -
1788018005 17.22° C 78% 1020.4 hPa 0.76 mm - 82 W/m² -
1788017405 17.22° C 81% 1020.4 hPa 1.27 mm - 42 W/m² -
1788016805 17.22° C 77% 1020.4 hPa 1.52 mm - 42 W/m² -
1788016205 17.22° C 77% 1020.4 hPa 1.52 mm - 73 W/m² -
1788015605 16.67° C 80% 1020.4 hPa 1.52 mm - 62 W/m² -
1788015005 16.11° C 87% 1021.2 hPa 1.52 mm - 33 W/m² -
1788014405 16.11° C 89% 1021.2 hPa 0.76 mm - 9 W/m² -
1788013805 16.11° C 88% 1021.2 hPa 0.25 mm - 2 W/m² -
1788013205 16.67° C 86% 1021.2 hPa 0 mm - 3 W/m² -
1788012605 16.67° C 86% 1021.2 hPa 0 mm - 2 W/m² -

* Rain latest hour (hover to see other rain measurements)
** Current wind speed in m/s (hover to see current wind gust speed)